Time;durP1;ratioP1;P1;durP2;ratioP2;P2;SDS_P1;SDS_P2;PMS_P1;PMS_P2;Temp;Humidity;BMP_temperature;BMP_pressure;BME280_temperature;BME280_humidity;BME280_pressure;Samples;Min_cycle;Max_cycle;Signal;HPM_P1;HPM_P2
2024/03/02 00:01:26;;;;;;;;;1.00;1.00;;;;;;;;4959989;28;46575;-66
2024/03/02 00:03:51;;;;;;;;;2.33;1.00;;;;;;;;4966373;28;46676;-65
2024/03/02 00:06:19;;;;;;;;;2.00;2.00;;;;;;;;4960153;28;45297;-66
2024/03/02 00:08:44;;;;;;;;;2.00;1.00;;;;;;;;4961375;28;45488;-66
2024/03/02 00:11:11;;;;;;;;;0.50;0.50;;;;;;;;4963687;28;45538;-66
2024/03/02 00:13:37;;;;;;;;;1.50;0.25;;;;;;;;4963948;28;47197;-65
2024/03/02 00:16:04;;;;;;;;;3.25;0.00;;;;;;;;4955554;28;45549;-66
2024/03/02 00:18:31;;;;;;;;;1.00;1.00;;;;;;;;4961400;28;45292;-66
2024/03/02 00:20:56;;;;;;;;;2.25;2.25;;;;;;;;4959587;28;46014;-66
2024/03/02 00:23:22;;;;;;;;;1.00;1.00;;;;;;;;4961115;28;45546;-65
2024/03/02 00:25:48;;;;;;;;;0.75;0.75;;;;;;;;4959731;28;45667;-65
2024/03/02 00:28:17;;;;;;;;;0.00;0.00;;;;;;;;4960442;28;45263;-66
2024/03/02 00:30:59;;;;;;;;;2.00;1.00;;;;;;;;4963877;28;45488;-65
2024/03/02 00:33:31;;;;;;;;;2.00;2.00;;;;;;;;4959686;28;47508;-65
2024/03/02 00:35:57;;;;;;;;;0.00;0.00;;;;;;;;4962901;28;45673;-65
2024/03/02 00:38:22;;;;;;;;;1.00;1.00;;;;;;;;4960870;28;45258;-65
2024/03/02 00:40:47;;;;;;;;;0.75;0.75;;;;;;;;4961380;28;45693;-65
2024/03/02 00:43:35;;;;;;;;;2.50;1.50;;;;;;;;4960625;28;46228;-65
2024/03/02 00:46:01;;;;;;;;;1.00;0.00;;;;;;;;4958892;28;45485;-66
2024/03/02 00:48:26;;;;;;;;;0.50;0.50;;;;;;;;4959492;28;45502;-65
2024/03/02 00:50:54;;;;;;;;;0.50;0.50;;;;;;;;4960507;28;45391;-65
2024/03/02 00:53:24;;;;;;;;;0.25;0.25;;;;;;;;4959209;28;48328;-66
2024/03/02 00:55:49;;;;;;;;;2.00;1.00;;;;;;;;4960669;28;45494;-66
2024/03/02 00:58:14;;;;;;;;;1.50;0.25;;;;;;;;4958664;28;45431;-65
2024/03/02 01:00:40;;;;;;;;;0.00;0.00;;;;;;;;4960181;28;45596;-66
2024/03/02 01:03:05;;;;;;;;;1.00;1.00;;;;;;;;4964732;28;46227;-66
2024/03/02 01:05:30;;;;;;;;;1.00;0.33;;;;;;;;4965078;28;45545;-66
2024/03/02 01:07:55;;;;;;;;;1.00;1.00;;;;;;;;4960442;28;45332;-66
2024/03/02 01:10:21;;;;;;;;;0.00;0.00;;;;;;;;4958867;28;46026;-65
2024/03/02 01:12:46;;;;;;;;;0.50;0.50;;;;;;;;4966169;28;46515;-65
2024/03/02 01:15:11;;;;;;;;;2.50;1.00;;;;;;;;4956651;28;45447;-65
2024/03/02 01:17:36;;;;;;;;;1.00;1.00;;;;;;;;4957753;28;45384;-65
2024/03/02 01:20:02;;;;;;;;;3.00;1.00;;;;;;;;4965469;28;45455;-66
2024/03/02 01:22:27;;;;;;;;;1.00;1.00;;;;;;;;4958671;28;48205;-66
2024/03/02 01:24:52;;;;;;;;;1.00;1.00;;;;;;;;4960144;28;45365;-66
2024/03/02 01:27:18;;;;;;;;;1.00;1.00;;;;;;;;4960038;28;45559;-66
2024/03/02 01:29:43;;;;;;;;;0.00;0.00;;;;;;;;4958514;28;45735;-65
2024/03/02 01:32:09;;;;;;;;;0.00;0.00;;;;;;;;4959940;28;46831;-67
2024/03/02 01:34:34;;;;;;;;;1.00;1.00;;;;;;;;4960109;28;45497;-65
2024/03/02 01:36:59;;;;;;;;;1.00;1.00;;;;;;;;4958698;28;45258;-66
2024/03/02 01:39:24;;;;;;;;;0.67;0.67;;;;;;;;4959913;28;45256;-65
2024/03/02 01:41:49;;;;;;;;;3.00;0.75;;;;;;;;4961322;28;45442;-66
2024/03/02 01:44:15;;;;;;;;;2.00;1.00;;;;;;;;4958431;28;45361;-66
2024/03/02 01:46:40;;;;;;;;;0.75;0.25;;;;;;;;4958607;28;45297;-66
2024/03/02 01:49:06;;;;;;;;;1.00;1.00;;;;;;;;4960838;28;45305;-65
2024/03/02 01:51:31;;;;;;;;;1.50;1.00;;;;;;;;4961884;28;48360;-66
2024/03/02 01:53:56;;;;;;;;;4.00;1.00;;;;;;;;4963415;28;45559;-65
2024/03/02 01:56:22;;;;;;;;;1.00;1.00;;;;;;;;4959716;28;45494;-66
2024/03/02 01:58:47;;;;;;;;;0.00;0.00;;;;;;;;4959413;28;45265;-65
2024/03/02 02:01:12;;;;;;;;;2.67;2.00;;;;;;;;4958047;28;46672;-66
2024/03/02 02:03:37;;;;;;;;;1.33;0.00;;;;;;;;4958447;28;45455;-66
2024/03/02 02:06:03;;;;;;;;;1.67;0.00;;;;;;;;4962907;28;45456;-65
2024/03/02 02:08:28;;;;;;;;;0.50;0.50;;;;;;;;4964146;28;45429;-65
2024/03/02 02:10:53;;;;;;;;;1.00;0.67;;;;;;;;4958515;28;48589;-65
2024/03/02 02:13:18;;;;;;;;;2.33;0.00;;;;;;;;4965818;28;45538;-65
2024/03/02 02:15:43;;;;;;;;;1.00;0.67;;;;;;;;4956988;28;45317;-65
2024/03/02 02:18:09;;;;;;;;;0.33;0.00;;;;;;;;4959493;28;45509;-66
2024/03/02 02:20:35;;;;;;;;;0.50;0.50;;;;;;;;4959601;28;46166;-65
2024/03/02 02:23:05;;;;;;;;;1.00;0.00;;;;;;;;4974464;28;45363;-66
2024/03/02 02:25:30;;;;;;;;;0.25;0.00;;;;;;;;4959236;28;45554;-66
2024/03/02 02:27:56;;;;;;;;;0.50;0.50;;;;;;;;4959069;28;45312;-68
2024/03/02 02:30:26;;;;;;;;;0.00;0.00;;;;;;;;4959230;28;48242;-65
2024/03/02 02:32:51;;;;;;;;;0.50;0.50;;;;;;;;4962819;28;45632;-65
2024/03/02 02:35:16;;;;;;;;;0.50;0.00;;;;;;;;4963047;28;45661;-65
2024/03/02 02:37:42;;;;;;;;;0.00;0.00;;;;;;;;4962296;28;45313;-65
2024/03/02 02:40:08;;;;;;;;;1.00;0.00;;;;;;;;4968842;28;45982;-63
2024/03/02 02:42:34;;;;;;;;;2.25;0.50;;;;;;;;4962394;28;45667;-63
2024/03/02 02:44:59;;;;;;;;;0.00;0.00;;;;;;;;4961273;28;45420;-63
2024/03/02 02:47:25;;;;;;;;;0.00;0.00;;;;;;;;4962613;28;45314;-63
2024/03/02 02:49:50;;;;;;;;;0.00;0.00;;;;;;;;4962275;28;45666;-63
2024/03/02 02:52:16;;;;;;;;;1.00;0.00;;;;;;;;4977150;28;46256;-63
2024/03/02 02:54:41;;;;;;;;;1.50;1.00;;;;;;;;4961183;28;45285;-63
2024/03/02 02:57:06;;;;;;;;;1.25;0.00;;;;;;;;4962123;28;45413;-65
2024/03/02 02:59:31;;;;;;;;;0.67;0.33;;;;;;;;4962059;28;45443;-65
2024/03/02 03:01:57;;;;;;;;;1.33;1.33;;;;;;;;4961967;28;45486;-65
2024/03/02 03:04:22;;;;;;;;;1.67;1.00;;;;;;;;4961062;28;45579;-66
2024/03/02 03:06:47;;;;;;;;;0.00;0.00;;;;;;;;4960692;28;45628;-65
2024/03/02 03:09:12;;;;;;;;;0.00;0.00;;;;;;;;4964027;28;45352;-65
2024/03/02 03:11:37;;;;;;;;;0.00;0.00;;;;;;;;4965563;28;45577;-65
2024/03/02 03:14:04;;;;;;;;;1.00;0.00;;;;;;;;4964085;28;45297;-65
2024/03/02 03:16:30;;;;;;;;;0.00;0.00;;;;;;;;4956372;28;45479;-65
2024/03/02 03:18:55;;;;;;;;;1.00;1.00;;;;;;;;4962042;28;45463;-65
2024/03/02 03:21:21;;;;;;;;;0.00;0.00;;;;;;;;4967544;28;45369;-66
2024/03/02 03:23:46;;;;;;;;;0.00;0.00;;;;;;;;4965456;28;45359;-65
2024/03/02 03:26:11;;;;;;;;;0.00;0.00;;;;;;;;4961846;28;45716;-66
2024/03/02 03:28:36;;;;;;;;;1.00;1.00;;;;;;;;4961349;28;45658;-65
2024/03/02 03:31:02;;;;;;;;;0.00;0.00;;;;;;;;4960521;28;45307;-65
2024/03/02 03:33:28;;;;;;;;;1.00;0.00;;;;;;;;4965289;28;45543;-65
2024/03/02 03:35:53;;;;;;;;;0.00;0.00;;;;;;;;4961911;28;45370;-65
2024/03/02 03:38:19;;;;;;;;;1.33;1.00;;;;;;;;4964124;28;46284;-66
2024/03/02 03:40:44;;;;;;;;;1.00;0.00;;;;;;;;4967549;28;45648;-65
2024/03/02 03:43:10;;;;;;;;;1.00;0.00;;;;;;;;4959832;28;45410;-65
2024/03/02 03:45:37;;;;;;;;;0.00;0.00;;;;;;;;4961569;28;45445;-65
2024/03/02 03:48:02;;;;;;;;;2.00;0.00;;;;;;;;4961485;28;45278;-65
2024/03/02 03:50:28;;;;;;;;;0.00;0.00;;;;;;;;4961592;28;45250;-65
2024/03/02 03:52:53;;;;;;;;;1.00;0.00;;;;;;;;4961445;28;45383;-65
2024/03/02 03:55:18;;;;;;;;;2.33;0.33;;;;;;;;4961659;28;45265;-65
2024/03/02 03:57:43;;;;;;;;;0.00;0.00;;;;;;;;4961071;28;45406;-65
2024/03/02 04:00:10;;;;;;;;;0.00;0.00;;;;;;;;4960863;28;45406;-65
2024/03/02 04:02:36;;;;;;;;;0.00;0.00;;;;;;;;4961788;28;45460;-65
2024/03/02 04:05:04;;;;;;;;;2.50;1.00;;;;;;;;4961295;28;45418;-65
2024/03/02 04:07:29;;;;;;;;;1.50;0.00;;;;;;;;4959819;28;47505;-65
2024/03/02 04:09:55;;;;;;;;;0.00;0.00;;;;;;;;4961726;28;46470;-65
2024/03/02 04:12:20;;;;;;;;;2.00;0.00;;;;;;;;4963408;28;45329;-65
2024/03/02 04:14:45;;;;;;;;;0.00;0.00;;;;;;;;4964299;28;45910;-65
2024/03/02 04:17:10;;;;;;;;;0.25;0.00;;;;;;;;4959609;28;48171;-65
2024/03/02 04:19:36;;;;;;;;;1.00;1.00;;;;;;;;4961291;28;45731;-65
2024/03/02 04:22:01;;;;;;;;;0.67;0.00;;;;;;;;4961082;28;45315;-65
2024/03/02 04:24:26;;;;;;;;;0.00;0.00;;;;;;;;4959910;28;45433;-65
2024/03/02 04:26:51;;;;;;;;;3.00;0.00;;;;;;;;4960791;28;46239;-66
2024/03/02 04:29:16;;;;;;;;;0.00;0.00;;;;;;;;4960592;28;46367;-65
2024/03/02 04:31:42;;;;;;;;;1.00;0.67;;;;;;;;4965928;28;45435;-65
2024/03/02 04:34:07;;;;;;;;;0.00;0.00;;;;;;;;4959766;28;45501;-65
2024/03/02 04:36:33;;;;;;;;;0.50;0.25;;;;;;;;4959460;28;46448;-65
2024/03/02 04:38:58;;;;;;;;;0.67;0.67;;;;;;;;4962882;28;45514;-65
2024/03/02 04:41:23;;;;;;;;;1.00;0.00;;;;;;;;4963238;28;45408;-65
2024/03/02 04:43:48;;;;;;;;;1.00;1.00;;;;;;;;4959298;28;45603;-65
2024/03/02 04:46:13;;;;;;;;;0.67;0.00;;;;;;;;4959161;28;47196;-65
2024/03/02 04:48:39;;;;;;;;;0.00;0.00;;;;;;;;4960869;28;45572;-65
2024/03/02 04:51:04;;;;;;;;;0.00;0.00;;;;;;;;4960617;28;45439;-65
2024/03/02 04:53:29;;;;;;;;;0.00;0.00;;;;;;;;4965276;28;45241;-65
2024/03/02 04:58:38;;;;;;;;;0.50;0.50;;;;;;;;4960249;28;45316;-65
2024/03/02 05:01:03;;;;;;;;;0.00;0.00;;;;;;;;4962896;28;45328;-65
2024/03/02 05:03:29;;;;;;;;;2.00;1.00;;;;;;;;4965551;28;45585;-65
2024/03/02 05:05:54;;;;;;;;;0.00;0.00;;;;;;;;4958872;28;47040;-65
2024/03/02 05:08:19;;;;;;;;;1.25;0.00;;;;;;;;4960674;28;45596;-65
2024/03/02 05:10:45;;;;;;;;;0.00;0.00;;;;;;;;4960135;28;45612;-65
2024/03/02 05:13:10;;;;;;;;;1.00;0.00;;;;;;;;4969172;28;45584;-65
2024/03/02 05:15:36;;;;;;;;;0.67;0.00;;;;;;;;4954280;28;45579;-66
2024/03/02 05:18:05;;;;;;;;;3.67;0.33;;;;;;;;4960411;28;45525;-65
2024/03/02 05:20:30;;;;;;;;;2.00;0.00;;;;;;;;4955128;28;45643;-65
2024/03/02 05:22:55;;;;;;;;;0.75;0.00;;;;;;;;4958812;28;45692;-65
2024/03/02 05:25:20;;;;;;;;;0.33;0.33;;;;;;;;4958998;28;48122;-65
2024/03/02 05:27:46;;;;;;;;;0.00;0.00;;;;;;;;4959973;28;45511;-65
2024/03/02 05:30:11;;;;;;;;;1.00;1.00;;;;;;;;4958410;28;45523;-65
2024/03/02 05:32:37;;;;;;;;;0.00;0.00;;;;;;;;4960261;28;45320;-65
2024/03/02 05:35:02;;;;;;;;;0.00;0.00;;;;;;;;4961521;28;46924;-65
2024/03/02 05:37:28;;;;;;;;;2.00;1.00;;;;;;;;4959561;28;45423;-65
2024/03/02 05:39:53;;;;;;;;;1.00;1.00;;;;;;;;4961621;28;45383;-65
2024/03/02 05:42:19;;;;;;;;;2.00;1.00;;;;;;;;4968500;28;45659;-66
2024/03/02 05:44:44;;;;;;;;;2.67;1.00;;;;;;;;4959511;28;45338;-66
2024/03/02 05:47:09;;;;;;;;;0.67;0.00;;;;;;;;4959907;28;45485;-65
2024/03/02 05:49:34;;;;;;;;;0.67;0.67;;;;;;;;4958898;28;45379;-65
2024/03/02 05:52:00;;;;;;;;;1.00;1.00;;;;;;;;4959694;28;45504;-65
2024/03/02 05:54:25;;;;;;;;;1.67;0.00;;;;;;;;4958505;28;46789;-65
2024/03/02 05:56:50;;;;;;;;;1.00;1.00;;;;;;;;4959446;28;45534;-65
2024/03/02 05:59:16;;;;;;;;;3.00;1.67;;;;;;;;4958068;28;45449;-65
2024/03/02 06:01:42;;;;;;;;;0.25;0.00;;;;;;;;4958548;28;45515;-65
2024/03/02 06:04:08;;;;;;;;;0.00;0.00;;;;;;;;4958406;28;47526;-65
2024/03/02 06:06:33;;;;;;;;;0.00;0.00;;;;;;;;4962392;28;45464;-65
2024/03/02 06:09:07;;;;;;;;;1.00;1.00;;;;;;;;4962048;28;45281;-65
2024/03/02 06:11:33;;;;;;;;;2.50;2.00;;;;;;;;4969914;28;45337;-65
2024/03/02 06:13:58;;;;;;;;;0.75;0.50;;;;;;;;4964594;28;45578;-65
2024/03/02 06:16:23;;;;;;;;;1.00;1.00;;;;;;;;4957568;28;45294;-65
2024/03/02 06:18:48;;;;;;;;;1.00;1.00;;;;;;;;4961892;28;45380;-65
2024/03/02 06:21:13;;;;;;;;;2.33;1.00;;;;;;;;4962907;28;45337;-65
2024/03/02 06:23:39;;;;;;;;;1.00;1.00;;;;;;;;4961444;28;46011;-65
2024/03/02 06:26:04;;;;;;;;;1.00;1.00;;;;;;;;4962424;28;45448;-65
2024/03/02 06:28:29;;;;;;;;;1.00;1.00;;;;;;;;4958366;28;45432;-65
2024/03/02 06:30:55;;;;;;;;;1.00;1.00;;;;;;;;4963083;28;45248;-65
2024/03/02 06:33:20;;;;;;;;;2.00;1.00;;;;;;;;4962414;28;46291;-65
2024/03/02 06:35:45;;;;;;;;;1.00;1.00;;;;;;;;4961168;28;45653;-65
2024/03/02 06:38:10;;;;;;;;;1.00;1.00;;;;;;;;4962854;28;45403;-65
2024/03/02 06:40:38;;;;;;;;;0.00;0.00;;;;;;;;4969878;28;45313;-65
2024/03/02 06:43:03;;;;;;;;;1.00;0.75;;;;;;;;4964646;28;47492;-65
2024/03/02 06:45:30;;;;;;;;;1.00;0.00;;;;;;;;4960941;28;45805;-65
2024/03/02 06:47:56;;;;;;;;;1.00;1.00;;;;;;;;4961243;28;45349;-65
2024/03/02 06:50:21;;;;;;;;;3.50;2.00;;;;;;;;4962550;28;45538;-65
2024/03/02 06:52:46;;;;;;;;;1.00;1.00;;;;;;;;4961858;28;45381;-65
2024/03/02 06:55:11;;;;;;;;;1.25;1.25;;;;;;;;4960986;28;45489;-66
2024/03/02 06:57:37;;;;;;;;;1.00;1.00;;;;;;;;4962199;28;45641;-65
2024/03/02 07:00:04;;;;;;;;;2.00;1.00;;;;;;;;4961912;28;45695;-65
2024/03/02 07:02:30;;;;;;;;;3.75;1.00;;;;;;;;4960714;28;45572;-65
2024/03/02 07:04:55;;;;;;;;;0.00;0.00;;;;;;;;4961704;28;45478;-65
2024/03/02 07:07:20;;;;;;;;;1.00;1.00;;;;;;;;4962184;28;45237;-65
2024/03/02 07:09:46;;;;;;;;;0.00;0.00;;;;;;;;4961852;28;45341;-65
2024/03/02 07:12:11;;;;;;;;;1.00;1.00;;;;;;;;4969342;28;45714;-65
2024/03/02 07:17:20;;;;;;;;;1.50;0.50;;;;;;;;4970787;28;45329;-65
2024/03/02 07:19:46;;;;;;;;;1.00;1.00;;;;;;;;4978908;28;45315;-65
2024/03/02 07:22:12;;;;;;;;;3.50;1.00;;;;;;;;4990216;28;47340;-66
2024/03/02 07:24:43;;;;;;;;;0.00;0.00;;;;;;;;4964195;28;45588;-66
2024/03/02 07:27:09;;;;;;;;;1.00;0.00;;;;;;;;4976403;28;45431;-66
2024/03/02 07:29:34;;;;;;;;;0.00;0.00;;;;;;;;4967263;28;45621;-66
2024/03/02 07:31:59;;;;;;;;;1.50;0.00;;;;;;;;4978319;28;47187;-64
2024/03/02 07:34:25;;;;;;;;;3.00;0.33;;;;;;;;4965827;28;45365;-67
2024/03/02 07:36:50;;;;;;;;;0.00;0.00;;;;;;;;4971354;28;46469;-67
2024/03/02 07:39:16;;;;;;;;;2.25;0.25;;;;;;;;4993755;28;45328;-67
2024/03/02 07:41:41;;;;;;;;;2.50;0.00;;;;;;;;4970153;28;47032;-67
2024/03/02 07:44:07;;;;;;;;;2.00;1.00;;;;;;;;4989741;28;45309;-67
2024/03/02 07:46:32;;;;;;;;;1.00;0.00;;;;;;;;4962447;28;45825;-67
2024/03/02 07:48:57;;;;;;;;;1.50;0.00;;;;;;;;4961779;28;45506;-71
2024/03/02 07:51:23;;;;;;;;;1.00;0.00;;;;;;;;4960623;28;45467;-67
2024/03/02 07:53:48;;;;;;;;;0.75;0.50;;;;;;;;4980046;28;45259;-67
2024/03/02 07:56:14;;;;;;;;;1.00;1.00;;;;;;;;4975389;28;45434;-67
2024/03/02 07:58:40;;;;;;;;;0.00;0.00;;;;;;;;4961803;28;46006;-67
2024/03/02 08:01:05;;;;;;;;;1.00;1.00;;;;;;;;4964806;28;47241;-66
2024/03/02 08:03:32;;;;;;;;;1.00;0.00;;;;;;;;4964944;28;45455;-67
2024/03/02 08:05:57;;;;;;;;;1.25;1.00;;;;;;;;4948195;28;45462;-68
2024/03/02 08:08:22;;;;;;;;;0.25;0.25;;;;;;;;4961048;28;45439;-67
2024/03/02 08:10:48;;;;;;;;;1.33;1.00;;;;;;;;4961196;28;45612;-68
2024/03/02 08:13:14;;;;;;;;;0.00;0.00;;;;;;;;4960953;28;45664;-67
2024/03/02 08:15:39;;;;;;;;;1.00;0.67;;;;;;;;4967050;28;45510;-68
2024/03/02 08:18:04;;;;;;;;;0.67;0.67;;;;;;;;4975912;28;45402;-67
2024/03/02 08:20:29;;;;;;;;;1.50;1.00;;;;;;;;4959814;28;48263;-68
2024/03/02 08:22:55;;;;;;;;;2.00;0.00;;;;;;;;4961147;28;45436;-66
2024/03/02 08:25:20;;;;;;;;;0.00;0.00;;;;;;;;4963120;28;45589;-66
2024/03/02 08:27:45;;;;;;;;;1.00;0.00;;;;;;;;4963398;28;45354;-66
2024/03/02 08:30:11;;;;;;;;;2.00;1.00;;;;;;;;4960527;28;46083;-66
2024/03/02 08:32:36;;;;;;;;;0.00;0.00;;;;;;;;4961356;28;45498;-66
2024/03/02 08:35:02;;;;;;;;;2.50;1.00;;;;;;;;4961572;28;45529;-66
2024/03/02 08:37:27;;;;;;;;;1.75;0.75;;;;;;;;4966033;28;45529;-66
2024/03/02 08:39:52;;;;;;;;;0.00;0.00;;;;;;;;4959351;28;47257;-66
2024/03/02 08:42:18;;;;;;;;;0.50;0.00;;;;;;;;4963291;28;45614;-66
2024/03/02 08:44:43;;;;;;;;;1.25;1.00;;;;;;;;4967846;28;45229;-66
2024/03/02 08:47:08;;;;;;;;;4.00;0.75;;;;;;;;4968815;28;45364;-66
2024/03/02 08:49:33;;;;;;;;;1.00;0.00;;;;;;;;4965073;28;45479;-67
2024/03/02 08:51:59;;;;;;;;;1.00;0.00;;;;;;;;4964581;28;46710;-66
2024/03/02 08:54:24;;;;;;;;;0.00;0.00;;;;;;;;4966201;28;45231;-66
2024/03/02 08:56:50;;;;;;;;;1.00;1.00;;;;;;;;4962774;28;45572;-67
2024/03/02 08:59:15;;;;;;;;;0.75;0.00;;;;;;;;4958931;28;47221;-66
2024/03/02 09:01:41;;;;;;;;;0.50;0.50;;;;;;;;4963003;28;45380;-66
2024/03/02 09:04:08;;;;;;;;;1.00;0.00;;;;;;;;4959056;28;45353;-66
2024/03/02 09:06:33;;;;;;;;;0.00;0.00;;;;;;;;4960410;28;45479;-66
2024/03/02 09:08:59;;;;;;;;;0.00;0.00;;;;;;;;4958577;28;47708;-66
2024/03/02 09:11:24;;;;;;;;;1.00;0.67;;;;;;;;4957842;28;45484;-67
2024/03/02 09:13:50;;;;;;;;;1.00;1.00;;;;;;;;4956515;28;45774;-67
2024/03/02 09:16:15;;;;;;;;;1.00;0.33;;;;;;;;4960714;28;46396;-66
2024/03/02 09:18:40;;;;;;;;;1.00;1.00;;;;;;;;4958520;28;45560;-67
2024/03/02 09:21:06;;;;;;;;;1.33;0.00;;;;;;;;4959363;28;45332;-67
2024/03/02 09:23:31;;;;;;;;;1.00;0.00;;;;;;;;4974575;28;45395;-67
2024/03/02 09:25:57;;;;;;;;;2.00;2.00;;;;;;;;4975651;28;46271;-67
2024/03/02 09:28:22;;;;;;;;;1.00;1.00;;;;;;;;4958418;28;45901;-66
2024/03/02 09:30:47;;;;;;;;;2.00;1.00;;;;;;;;4965125;28;45752;-66
2024/03/02 09:33:12;;;;;;;;;2.67;2.00;;;;;;;;4962081;28;45845;-67
2024/03/02 09:35:38;;;;;;;;;1.67;1.00;;;;;;;;4975435;28;45494;-66
2024/03/02 09:38:03;;;;;;;;;2.25;1.00;;;;;;;;4967855;28;45808;-67
2024/03/02 09:40:28;;;;;;;;;3.00;2.00;;;;;;;;4972597;28;45662;-66
2024/03/02 09:42:54;;;;;;;;;2.75;2.75;;;;;;;;4959295;28;45411;-67
2024/03/02 09:45:23;;;;;;;;;3.25;2.00;;;;;;;;4967991;28;45458;-67
2024/03/02 09:47:49;;;;;;;;;4.25;2.75;;;;;;;;4964389;28;46346;-67
2024/03/02 09:50:14;;;;;;;;;5.00;4.00;;;;;;;;4966576;28;45728;-67
2024/03/02 09:52:40;;;;;;;;;3.00;2.00;;;;;;;;4959243;28;45397;-67
2024/03/02 09:55:05;;;;;;;;;2.00;1.00;;;;;;;;4959009;28;45543;-67
2024/03/02 09:57:30;;;;;;;;;3.00;2.00;;;;;;;;4958303;28;46556;-67
2024/03/02 09:59:55;;;;;;;;;2.50;1.00;;;;;;;;4968688;28;45418;-66
2024/03/02 10:02:21;;;;;;;;;2.33;2.33;;;;;;;;4967933;28;45391;-67
2024/03/02 10:04:48;;;;;;;;;5.00;3.00;;;;;;;;4958260;28;45503;-67
2024/03/02 10:07:15;;;;;;;;;4.00;2.00;;;;;;;;4968673;28;47004;-66
2024/03/02 10:09:41;;;;;;;;;2.00;2.00;;;;;;;;4959013;28;45829;-67
2024/03/02 10:12:07;;;;;;;;;3.75;2.25;;;;;;;;4959144;28;45510;-66
2024/03/02 10:14:33;;;;;;;;;1.75;1.50;;;;;;;;4963638;28;45786;-66
2024/03/02 10:17:05;;;;;;;;;2.50;1.50;;;;;;;;4957986;28;46359;-66
2024/03/02 10:19:32;;;;;;;;;2.00;2.00;;;;;;;;4958033;28;45529;-67
2024/03/02 10:21:58;;;;;;;;;3.00;1.00;;;;;;;;4961649;28;45533;-67
2024/03/02 10:24:24;;;;;;;;;1.00;1.00;;;;;;;;4965782;28;45707;-67
2024/03/02 10:26:49;;;;;;;;;4.25;2.00;;;;;;;;4963737;28;45403;-67
2024/03/02 10:29:15;;;;;;;;;1.00;1.00;;;;;;;;4961281;28;45684;-67
2024/03/02 10:31:45;;;;;;;;;1.50;1.00;;;;;;;;4962889;28;45431;-67
2024/03/02 10:34:11;;;;;;;;;2.00;2.00;;;;;;;;4956380;28;45740;-67
2024/03/02 10:36:37;;;;;;;;;5.00;2.75;;;;;;;;4965119;28;48467;-66
2024/03/02 10:39:03;;;;;;;;;1.00;1.00;;;;;;;;4959516;28;45382;-67
2024/03/02 10:41:31;;;;;;;;;2.00;2.00;;;;;;;;4956986;28;45459;-67
2024/03/02 10:43:59;;;;;;;;;2.00;2.00;;;;;;;;4958116;28;45380;-67
2024/03/02 10:46:29;;;;;;;;;2.50;2.00;;;;;;;;4967166;28;47404;-67
2024/03/02 10:48:55;;;;;;;;;3.25;3.00;;;;;;;;4957021;28;45680;-67
2024/03/02 10:51:20;;;;;;;;;7.75;7.00;;;;;;;;4958555;28;45468;-64
2024/03/02 10:53:45;;;;;;;;;2.25;2.25;;;;;;;;4944278;28;45820;-64
2024/03/02 10:56:15;;;;;;;;;3.00;2.00;;;;;;;;4959868;28;47241;-65
2024/03/02 10:58:40;;;;;;;;;4.00;3.00;;;;;;;;4962298;28;45658;-64
2024/03/02 11:01:07;;;;;;;;;1.00;1.00;;;;;;;;4964184;28;45574;-64
2024/03/02 11:03:35;;;;;;;;;1.00;1.00;;;;;;;;4961992;28;45482;-67
2024/03/02 11:06:00;;;;;;;;;2.00;1.00;;;;;;;;4960858;28;45709;-67
2024/03/02 11:08:26;;;;;;;;;1.75;1.00;;;;;;;;4961526;28;45437;-67
2024/03/02 11:10:54;;;;;;;;;1.25;0.50;;;;;;;;4968211;28;45541;-67
2024/03/02 11:13:24;;;;;;;;;2.50;2.50;;;;;;;;4961572;28;45468;-66
2024/03/02 11:15:51;;;;;;;;;1.00;1.00;;;;;;;;4966635;28;48541;-66
2024/03/02 11:18:17;;;;;;;;;2.00;2.00;;;;;;;;4966695;28;45541;-66
2024/03/02 11:20:43;;;;;;;;;1.00;0.75;;;;;;;;4963816;28;45558;-66
2024/03/02 11:23:09;;;;;;;;;0.00;0.00;;;;;;;;4959914;28;45368;-66
2024/03/02 11:25:35;;;;;;;;;4.00;2.25;;;;;;;;4965356;28;46065;-66
2024/03/02 11:28:02;;;;;;;;;0.00;0.00;;;;;;;;4959602;28;45618;-67
2024/03/02 11:30:33;;;;;;;;;0.25;0.25;;;;;;;;4967064;28;45391;-67
2024/03/02 11:32:59;;;;;;;;;1.00;0.25;;;;;;;;4954905;28;45428;-67
2024/03/02 11:35:30;;;;;;;;;1.00;1.00;;;;;;;;4960505;28;45814;-66
2024/03/02 11:37:58;;;;;;;;;1.00;1.00;;;;;;;;4955447;28;45806;-67
2024/03/02 11:40:27;;;;;;;;;0.00;0.00;;;;;;;;4962118;28;45517;-67
2024/03/02 11:42:52;;;;;;;;;1.75;0.00;;;;;;;;4954085;28;45539;-66
2024/03/02 11:45:22;;;;;;;;;2.00;1.00;;;;;;;;4963059;28;45598;-67
2024/03/02 11:47:51;;;;;;;;;0.00;0.00;;;;;;;;4963523;28;46312;-67
2024/03/02 11:50:28;;;;;;;;;1.50;0.00;;;;;;;;4962128;28;45483;-67
2024/03/02 11:52:53;;;;;;;;;0.00;0.00;;;;;;;;4960621;28;45829;-64
2024/03/02 11:55:19;;;;;;;;;0.00;0.00;;;;;;;;4960305;28;46729;-65
2024/03/02 11:57:45;;;;;;;;;0.50;0.00;;;;;;;;4962825;28;45606;-67
2024/03/02 12:00:17;;;;;;;;;0.00;0.00;;;;;;;;4958790;28;45365;-67
2024/03/02 12:02:44;;;;;;;;;0.00;0.00;;;;;;;;4962172;28;45539;-67
2024/03/02 12:05:10;;;;;;;;;0.00;0.00;;;;;;;;4957221;28;45445;-67
2024/03/02 12:07:54;;;;;;;;;0.00;0.00;;;;;;;;4959395;28;45713;-67
2024/03/02 12:10:19;;;;;;;;;0.50;0.50;;;;;;;;4962632;28;45462;-67
2024/03/02 12:12:44;;;;;;;;;0.00;0.00;;;;;;;;4960489;28;45859;-68
2024/03/02 12:15:10;;;;;;;;;0.33;0.33;;;;;;;;4960762;28;46141;-68
2024/03/02 12:17:35;;;;;;;;;1.00;1.00;;;;;;;;4958888;28;45736;-67
2024/03/02 12:20:03;;;;;;;;;0.00;0.00;;;;;;;;4964077;28;45452;-67
2024/03/02 12:22:29;;;;;;;;;1.25;0.25;;;;;;;;4966091;28;45711;-67
2024/03/02 12:24:54;;;;;;;;;0.00;0.00;;;;;;;;4958537;28;46366;-68
2024/03/02 12:27:39;;;;;;;;;0.00;0.00;;;;;;;;4954858;28;46118;-69
2024/03/02 12:30:14;;;;;;;;;2.00;0.00;;;;;;;;4955421;28;45811;-69
2024/03/02 12:32:43;;;;;;;;;0.25;0.25;;;;;;;;4957178;28;45806;-67
2024/03/02 12:35:11;;;;;;;;;0.00;0.00;;;;;;;;4961223;28;45533;-67
2024/03/02 12:37:42;;;;;;;;;0.50;0.50;;;;;;;;4956877;28;45780;-67
2024/03/02 12:40:09;;;;;;;;;0.25;0.25;;;;;;;;4960921;28;45955;-67
2024/03/02 12:42:35;;;;;;;;;0.00;0.00;;;;;;;;4957027;28;45790;-67
2024/03/02 12:45:00;;;;;;;;;0.00;0.00;;;;;;;;4956465;28;45499;-67
2024/03/02 12:47:25;;;;;;;;;1.00;0.00;;;;;;;;4956794;28;45901;-67
2024/03/02 12:49:52;;;;;;;;;0.00;0.00;;;;;;;;4956978;28;45438;-67
2024/03/02 12:52:18;;;;;;;;;0.00;0.00;;;;;;;;4961419;28;45552;-67
2024/03/02 12:54:43;;;;;;;;;0.00;0.00;;;;;;;;4969233;28;47098;-67
2024/03/02 12:57:09;;;;;;;;;0.50;0.50;;;;;;;;4957959;28;45786;-68
2024/03/02 12:59:34;;;;;;;;;0.00;0.00;;;;;;;;4959770;28;45544;-68
2024/03/02 13:02:01;;;;;;;;;0.67;0.67;;;;;;;;4961270;28;45688;-67
2024/03/02 13:04:28;;;;;;;;;2.00;0.75;;;;;;;;4959748;28;45523;-67
2024/03/02 13:06:54;;;;;;;;;0.00;0.00;;;;;;;;4955379;28;45957;-67
2024/03/02 13:09:19;;;;;;;;;0.75;0.75;;;;;;;;4969761;28;45514;-68
2024/03/02 13:11:45;;;;;;;;;0.75;0.75;;;;;;;;4961186;28;45570;-67
2024/03/02 13:14:10;;;;;;;;;0.75;0.75;;;;;;;;4971871;28;47978;-67
2024/03/02 13:16:42;;;;;;;;;1.00;1.00;;;;;;;;4957796;28;45708;-67
2024/03/02 13:19:13;;;;;;;;;0.50;0.50;;;;;;;;4955788;28;45960;-68
2024/03/02 13:21:39;;;;;;;;;1.00;0.00;;;;;;;;4977687;28;46245;-68
2024/03/02 13:24:04;;;;;;;;;1.00;1.00;;;;;;;;4956894;28;46597;-67
2024/03/02 13:26:30;;;;;;;;;0.00;0.00;;;;;;;;4965851;28;45565;-67
2024/03/02 13:28:55;;;;;;;;;1.00;1.00;;;;;;;;4954351;28;45883;-67
2024/03/02 13:31:21;;;;;;;;;0.00;0.00;;;;;;;;4968613;28;45630;-68
2024/03/02 13:33:46;;;;;;;;;0.00;0.00;;;;;;;;4943871;28;45499;-67
2024/03/02 13:36:11;;;;;;;;;0.00;0.00;;;;;;;;4965534;28;45518;-67
2024/03/02 13:38:37;;;;;;;;;0.00;0.00;;;;;;;;4955402;28;45869;-65
2024/03/02 13:41:02;;;;;;;;;1.00;1.00;;;;;;;;4962701;28;45632;-65
2024/03/02 13:43:27;;;;;;;;;1.00;1.00;;;;;;;;4964664;28;45770;-64
2024/03/02 13:45:53;;;;;;;;;2.00;1.00;;;;;;;;4981331;28;45703;-65
2024/03/02 13:48:18;;;;;;;;;1.25;1.25;;;;;;;;4958326;28;46560;-65
2024/03/02 13:50:45;;;;;;;;;1.00;1.00;;;;;;;;4957954;28;45694;-65
2024/03/02 13:53:10;;;;;;;;;1.00;1.00;;;;;;;;4957363;28;48160;-65
2024/03/02 13:55:35;;;;;;;;;2.50;2.50;;;;;;;;4969831;28;45459;-65
2024/03/02 13:58:01;;;;;;;;;2.00;2.00;;;;;;;;4954091;28;45861;-64
2024/03/02 14:00:26;;;;;;;;;2.00;2.00;;;;;;;;4965904;28;45555;-65
2024/03/02 14:02:51;;;;;;;;;2.50;2.50;;;;;;;;4955649;28;47518;-64
2024/03/02 14:05:17;;;;;;;;;1.00;1.00;;;;;;;;4964902;28;45731;-65
2024/03/02 14:07:42;;;;;;;;;1.00;1.00;;;;;;;;4964623;28;45541;-65
2024/03/02 14:10:08;;;;;;;;;1.00;1.00;;;;;;;;4970287;28;45561;-65
2024/03/02 14:12:33;;;;;;;;;1.00;1.00;;;;;;;;4957926;28;45942;-65
2024/03/02 14:14:58;;;;;;;;;2.75;2.75;;;;;;;;4956321;28;45448;-65
2024/03/02 14:17:24;;;;;;;;;2.00;2.00;;;;;;;;4952676;28;45806;-64
2024/03/02 14:19:49;;;;;;;;;3.00;2.75;;;;;;;;4969974;28;45712;-65
2024/03/02 14:22:17;;;;;;;;;1.00;1.00;;;;;;;;4956745;28;46524;-65
2024/03/02 14:24:43;;;;;;;;;0.25;0.25;;;;;;;;4960608;28;45755;-69
2024/03/02 14:27:08;;;;;;;;;2.00;2.00;;;;;;;;4964463;28;45836;-66
2024/03/02 14:29:36;;;;;;;;;2.00;1.00;;;;;;;;4958924;28;45471;-67
2024/03/02 14:32:01;;;;;;;;;2.00;1.00;;;;;;;;4962057;28;45376;-67
2024/03/02 14:34:26;;;;;;;;;1.00;1.00;;;;;;;;4960372;28;45350;-68
2024/03/02 14:36:52;;;;;;;;;1.75;1.00;;;;;;;;4961456;28;45533;-67
2024/03/02 14:39:19;;;;;;;;;2.00;2.00;;;;;;;;4964814;28;46023;-68
2024/03/02 14:41:44;;;;;;;;;3.00;1.00;;;;;;;;4967329;28;45542;-67